sensor_id;sensor_type;location;lat;lon;timestamp;P1;durP1;ratioP1;P2;durP2;ratioP2
69310;SDS011;56430;48.154;16.458;2022-07-18T00:00:38;4.37;;;0.50;;
69310;SDS011;56430;48.154;16.458;2022-07-18T00:03:05;2.35;;;0.30;;
69310;SDS011;56430;48.154;16.458;2022-07-18T00:05:32;3.72;;;0.60;;
69310;SDS011;56430;48.154;16.458;2022-07-18T00:08:00;2.67;;;0.80;;
69310;SDS011;56430;48.154;16.458;2022-07-18T00:10:27;3.65;;;0.50;;
69310;SDS011;56430;48.154;16.458;2022-07-18T00:12:54;3.35;;;0.57;;
69310;SDS011;56430;48.154;16.458;2022-07-18T00:15:21;4.57;;;0.40;;
69310;SDS011;56430;48.154;16.458;2022-07-18T00:17:47;3.23;;;0.50;;
69310;SDS011;56430;48.154;16.458;2022-07-18T00:20:14;3.85;;;0.65;;
69310;SDS011;56430;48.154;16.458;2022-07-18T00:22:41;5.40;;;0.63;;
69310;SDS011;56430;48.154;16.458;2022-07-18T00:25:09;3.03;;;0.60;;
69310;SDS011;56430;48.154;16.458;2022-07-18T00:27:36;3.85;;;0.70;;
69310;SDS011;56430;48.154;16.458;2022-07-18T00:30:03;2.47;;;0.50;;
69310;SDS011;56430;48.154;16.458;2022-07-18T00:32:30;3.80;;;0.70;;
69310;SDS011;56430;48.154;16.458;2022-07-18T00:34:57;4.88;;;0.70;;
69310;SDS011;56430;48.154;16.458;2022-07-18T00:37:24;7.40;;;1.50;;
69310;SDS011;56430;48.154;16.458;2022-07-18T00:39:50;5.30;;;0.95;;
69310;SDS011;56430;48.154;16.458;2022-07-18T00:42:19;5.93;;;0.70;;
69310;SDS011;56430;48.154;16.458;2022-07-18T00:44:46;3.27;;;0.80;;
69310;SDS011;56430;48.154;16.458;2022-07-18T00:47:13;2.97;;;0.73;;
69310;SDS011;56430;48.154;16.458;2022-07-18T00:49:39;5.93;;;0.57;;
69310;SDS011;56430;48.154;16.458;2022-07-18T00:52:06;3.95;;;0.70;;
69310;SDS011;56430;48.154;16.458;2022-07-18T00:54:33;3.42;;;0.80;;
69310;SDS011;56430;48.154;16.458;2022-07-18T00:57:00;4.43;;;1.13;;
69310;SDS011;56430;48.154;16.458;2022-07-18T00:59:28;3.77;;;0.63;;
69310;SDS011;56430;48.154;16.458;2022-07-18T01:02:10;4.67;;;0.80;;
69310;SDS011;56430;48.154;16.458;2022-07-18T01:04:36;3.25;;;0.73;;
69310;SDS011;56430;48.154;16.458;2022-07-18T01:07:03;5.75;;;0.80;;
69310;SDS011;56430;48.154;16.458;2022-07-18T01:09:30;4.28;;;0.90;;
69310;SDS011;56430;48.154;16.458;2022-07-18T01:11:57;3.95;;;0.93;;
69310;SDS011;56430;48.154;16.458;2022-07-18T01:14:24;3.50;;;1.00;;
69310;SDS011;56430;48.154;16.458;2022-07-18T01:16:52;3.93;;;0.87;;
69310;SDS011;56430;48.154;16.458;2022-07-18T01:19:19;3.70;;;0.73;;
69310;SDS011;56430;48.154;16.458;2022-07-18T01:21:47;4.00;;;0.95;;
69310;SDS011;56430;48.154;16.458;2022-07-18T01:24:14;2.70;;;0.55;;
69310;SDS011;56430;48.154;16.458;2022-07-18T01:26:41;4.10;;;0.50;;
69310;SDS011;56430;48.154;16.458;2022-07-18T01:29:07;6.23;;;0.40;;
69310;SDS011;56430;48.154;16.458;2022-07-18T01:31:34;2.20;;;0.40;;
69310;SDS011;56430;48.154;16.458;2022-07-18T01:34:01;2.80;;;0.40;;
69310;SDS011;56430;48.154;16.458;2022-07-18T01:36:28;3.70;;;0.50;;
69310;SDS011;56430;48.154;16.458;2022-07-18T01:38:56;2.95;;;0.40;;
69310;SDS011;56430;48.154;16.458;2022-07-18T01:41:23;3.17;;;0.60;;
69310;SDS011;56430;48.154;16.458;2022-07-18T01:43:50;3.30;;;0.57;;
69310;SDS011;56430;48.154;16.458;2022-07-18T01:46:16;4.70;;;0.40;;
69310;SDS011;56430;48.154;16.458;2022-07-18T01:48:43;4.05;;;0.50;;
69310;SDS011;56430;48.154;16.458;2022-07-18T01:51:10;3.72;;;0.40;;
69310;SDS011;56430;48.154;16.458;2022-07-18T01:53:37;3.08;;;0.60;;
69310;SDS011;56430;48.154;16.458;2022-07-18T01:56:06;2.20;;;0.60;;
69310;SDS011;56430;48.154;16.458;2022-07-18T01:58:33;3.50;;;0.43;;
69310;SDS011;56430;48.154;16.458;2022-07-18T02:01:00;3.33;;;0.57;;
69310;SDS011;56430;48.154;16.458;2022-07-18T02:03:26;3.33;;;0.40;;
69310;SDS011;56430;48.154;16.458;2022-07-18T02:05:53;2.30;;;0.50;;
69310;SDS011;56430;48.154;16.458;2022-07-18T02:08:20;2.53;;;0.50;;
69310;SDS011;56430;48.154;16.458;2022-07-18T02:10:47;4.63;;;0.57;;
69310;SDS011;56430;48.154;16.458;2022-07-18T02:13:15;4.00;;;0.80;;
69310;SDS011;56430;48.154;16.458;2022-07-18T02:15:45;6.07;;;0.95;;
69310;SDS011;56430;48.154;16.458;2022-07-18T02:18:12;4.80;;;0.60;;
69310;SDS011;56430;48.154;16.458;2022-07-18T02:20:39;2.92;;;0.60;;
69310;SDS011;56430;48.154;16.458;2022-07-18T02:23:06;2.40;;;0.50;;
69310;SDS011;56430;48.154;16.458;2022-07-18T02:25:34;6.23;;;0.60;;
69310;SDS011;56430;48.154;16.458;2022-07-18T02:28:01;3.97;;;1.00;;
69310;SDS011;56430;48.154;16.458;2022-07-18T02:30:29;6.53;;;0.70;;
69310;SDS011;56430;48.154;16.458;2022-07-18T02:32:56;3.97;;;0.60;;
69310;SDS011;56430;48.154;16.458;2022-07-18T02:35:22;2.05;;;0.70;;
69310;SDS011;56430;48.154;16.458;2022-07-18T02:37:49;3.40;;;0.70;;
69310;SDS011;56430;48.154;16.458;2022-07-18T02:40:16;3.97;;;0.75;;
69310;SDS011;56430;48.154;16.458;2022-07-18T02:42:43;7.07;;;0.98;;
69310;SDS011;56430;48.154;16.458;2022-07-18T02:45:10;4.35;;;0.90;;
69310;SDS011;56430;48.154;16.458;2022-07-18T02:47:38;3.33;;;0.80;;
69310;SDS011;56430;48.154;16.458;2022-07-18T02:50:05;3.20;;;1.10;;
69310;SDS011;56430;48.154;16.458;2022-07-18T02:52:32;4.73;;;0.80;;
69310;SDS011;56430;48.154;16.458;2022-07-18T02:54:59;4.90;;;1.20;;
69310;SDS011;56430;48.154;16.458;2022-07-18T02:57:26;4.72;;;1.20;;
69310;SDS011;56430;48.154;16.458;2022-07-18T02:59:53;2.92;;;1.00;;
69310;SDS011;56430;48.154;16.458;2022-07-18T03:02:20;4.32;;;1.00;;
69310;SDS011;56430;48.154;16.458;2022-07-18T03:04:48;2.70;;;1.00;;
69310;SDS011;56430;48.154;16.458;2022-07-18T03:07:15;4.25;;;0.82;;
69310;SDS011;56430;48.154;16.458;2022-07-18T03:09:42;4.35;;;1.30;;
69310;SDS011;56430;48.154;16.458;2022-07-18T03:12:09;5.65;;;0.98;;
69310;SDS011;56430;48.154;16.458;2022-07-18T03:14:36;3.65;;;0.88;;
69310;SDS011;56430;48.154;16.458;2022-07-18T03:17:03;4.43;;;0.80;;
69310;SDS011;56430;48.154;16.458;2022-07-18T03:19:30;4.32;;;1.30;;
69310;SDS011;56430;48.154;16.458;2022-07-18T03:21:58;3.45;;;1.08;;
69310;SDS011;56430;48.154;16.458;2022-07-18T03:24:25;7.22;;;1.20;;
69310;SDS011;56430;48.154;16.458;2022-07-18T03:26:52;4.70;;;1.20;;
69310;SDS011;56430;48.154;16.458;2022-07-18T03:29:18;4.73;;;1.00;;
69310;SDS011;56430;48.154;16.458;2022-07-18T03:31:45;3.60;;;0.90;;
69310;SDS011;56430;48.154;16.458;2022-07-18T03:34:12;4.25;;;0.80;;
69310;SDS011;56430;48.154;16.458;2022-07-18T03:36:39;4.65;;;1.15;;
69310;SDS011;56430;48.154;16.458;2022-07-18T03:39:08;4.25;;;1.00;;
69310;SDS011;56430;48.154;16.458;2022-07-18T03:41:35;4.63;;;0.93;;
69310;SDS011;56430;48.154;16.458;2022-07-18T03:44:03;7.50;;;1.20;;
69310;SDS011;56430;48.154;16.458;2022-07-18T03:46:30;5.88;;;1.20;;
69310;SDS011;56430;48.154;16.458;2022-07-18T03:48:57;3.80;;;0.88;;
69310;SDS011;56430;48.154;16.458;2022-07-18T03:51:24;5.10;;;0.80;;
69310;SDS011;56430;48.154;16.458;2022-07-18T03:53:51;7.50;;;1.00;;
69310;SDS011;56430;48.154;16.458;2022-07-18T03:56:19;6.45;;;1.00;;
69310;SDS011;56430;48.154;16.458;2022-07-18T03:58:46;2.92;;;0.82;;
69310;SDS011;56430;48.154;16.458;2022-07-18T04:01:13;5.18;;;1.00;;
69310;SDS011;56430;48.154;16.458;2022-07-18T04:03:40;3.58;;;0.80;;
69310;SDS011;56430;48.154;16.458;2022-07-18T04:06:07;3.87;;;0.97;;
69310;SDS011;56430;48.154;16.458;2022-07-18T04:08:33;3.28;;;0.82;;
69310;SDS011;56430;48.154;16.458;2022-07-18T04:11:00;10.20;;;1.20;;
69310;SDS011;56430;48.154;16.458;2022-07-18T04:13:28;4.43;;;0.90;;
69310;SDS011;56430;48.154;16.458;2022-07-18T04:15:55;7.32;;;1.13;;
69310;SDS011;56430;48.154;16.458;2022-07-18T04:18:22;3.53;;;0.90;;
69310;SDS011;56430;48.154;16.458;2022-07-18T04:20:49;5.38;;;1.33;;
69310;SDS011;56430;48.154;16.458;2022-07-18T04:23:16;4.65;;;0.90;;
69310;SDS011;56430;48.154;16.458;2022-07-18T04:25:43;4.88;;;1.25;;
69310;SDS011;56430;48.154;16.458;2022-07-18T04:28:11;2.58;;;0.82;;
69310;SDS011;56430;48.154;16.458;2022-07-18T04:30:40;4.07;;;1.00;;
69310;SDS011;56430;48.154;16.458;2022-07-18T04:33:08;3.85;;;1.02;;
69310;SDS011;56430;48.154;16.458;2022-07-18T04:35:36;3.95;;;0.98;;
69310;SDS011;56430;48.154;16.458;2022-07-18T04:38:04;4.72;;;1.05;;
69310;SDS011;56430;48.154;16.458;2022-07-18T04:40:31;5.57;;;0.80;;
69310;SDS011;56430;48.154;16.458;2022-07-18T04:42:58;4.30;;;1.40;;
69310;SDS011;56430;48.154;16.458;2022-07-18T04:45:25;3.53;;;1.20;;
69310;SDS011;56430;48.154;16.458;2022-07-18T04:47:53;7.05;;;1.75;;
69310;SDS011;56430;48.154;16.458;2022-07-18T04:50:20;4.95;;;1.30;;
69310;SDS011;56430;48.154;16.458;2022-07-18T04:52:47;4.38;;;1.20;;
69310;SDS011;56430;48.154;16.458;2022-07-18T04:55:15;8.13;;;1.70;;
69310;SDS011;56430;48.154;16.458;2022-07-18T04:57:42;3.97;;;1.00;;
69310;SDS011;56430;48.154;16.458;2022-07-18T05:00:10;5.03;;;1.23;;
69310;SDS011;56430;48.154;16.458;2022-07-18T05:02:38;5.93;;;1.20;;
69310;SDS011;56430;48.154;16.458;2022-07-18T05:05:07;5.57;;;1.90;;
69310;SDS011;56430;48.154;16.458;2022-07-18T05:07:35;5.83;;;1.20;;
69310;SDS011;56430;48.154;16.458;2022-07-18T05:10:02;6.88;;;1.52;;
69310;SDS011;56430;48.154;16.458;2022-07-18T05:12:33;5.05;;;1.30;;
69310;SDS011;56430;48.154;16.458;2022-07-18T05:15:00;4.38;;;1.00;;
69310;SDS011;56430;48.154;16.458;2022-07-18T05:17:27;5.38;;;1.33;;
69310;SDS011;56430;48.154;16.458;2022-07-18T05:19:54;4.47;;;1.10;;
69310;SDS011;56430;48.154;16.458;2022-07-18T05:22:22;6.78;;;1.10;;
69310;SDS011;56430;48.154;16.458;2022-07-18T05:24:49;7.65;;;1.13;;
69310;SDS011;56430;48.154;16.458;2022-07-18T05:27:16;4.22;;;0.98;;
69310;SDS011;56430;48.154;16.458;2022-07-18T05:29:43;5.32;;;1.25;;
69310;SDS011;56430;48.154;16.458;2022-07-18T05:32:10;3.40;;;0.80;;
69310;SDS011;56430;48.154;16.458;2022-07-18T05:34:37;5.53;;;1.13;;
69310;SDS011;56430;48.154;16.458;2022-07-18T05:37:04;5.47;;;0.98;;
69310;SDS011;56430;48.154;16.458;2022-07-18T05:39:32;8.63;;;1.10;;
69310;SDS011;56430;48.154;16.458;2022-07-18T05:42:00;6.50;;;0.85;;
69310;SDS011;56430;48.154;16.458;2022-07-18T05:44:27;7.33;;;1.27;;
69310;SDS011;56430;48.154;16.458;2022-07-18T05:46:54;17.48;;;1.02;;
69310;SDS011;56430;48.154;16.458;2022-07-18T05:49:21;3.63;;;0.90;;
69310;SDS011;56430;48.154;16.458;2022-07-18T05:51:48;6.78;;;1.20;;
69310;SDS011;56430;48.154;16.458;2022-07-18T05:54:15;4.30;;;0.90;;
69310;SDS011;56430;48.154;16.458;2022-07-18T05:56:46;4.38;;;0.60;;
69310;SDS011;56430;48.154;16.458;2022-07-18T05:59:13;3.77;;;0.53;;
69310;SDS011;56430;48.154;16.458;2022-07-18T06:01:41;3.45;;;0.70;;
69310;SDS011;56430;48.154;16.458;2022-07-18T06:04:08;3.42;;;0.82;;
69310;SDS011;56430;48.154;16.458;2022-07-18T06:06:35;4.65;;;0.77;;
69310;SDS011;56430;48.154;16.458;2022-07-18T06:09:02;4.43;;;0.63;;
69310;SDS011;56430;48.154;16.458;2022-07-18T06:11:29;4.65;;;0.60;;
69310;SDS011;56430;48.154;16.458;2022-07-18T06:13:57;2.65;;;0.60;;
69310;SDS011;56430;48.154;16.458;2022-07-18T06:16:24;3.67;;;0.80;;
69310;SDS011;56430;48.154;16.458;2022-07-18T06:18:51;2.97;;;0.93;;
69310;SDS011;56430;48.154;16.458;2022-07-18T06:21:17;3.35;;;0.70;;
69310;SDS011;56430;48.154;16.458;2022-07-18T06:23:44;4.30;;;0.50;;
69310;SDS011;56430;48.154;16.458;2022-07-18T06:26:11;4.03;;;0.60;;
69310;SDS011;56430;48.154;16.458;2022-07-18T06:28:38;8.25;;;0.90;;
69310;SDS011;56430;48.154;16.458;2022-07-18T06:31:06;4.30;;;0.70;;
69310;SDS011;56430;48.154;16.458;2022-07-18T06:33:33;3.53;;;0.60;;
69310;SDS011;56430;48.154;16.458;2022-07-18T06:36:00;2.92;;;0.55;;
69310;SDS011;56430;48.154;16.458;2022-07-18T06:38:27;5.28;;;0.70;;
69310;SDS011;56430;48.154;16.458;2022-07-18T06:40:54;3.73;;;0.47;;
69310;SDS011;56430;48.154;16.458;2022-07-18T06:43:20;3.90;;;0.70;;
69310;SDS011;56430;48.154;16.458;2022-07-18T06:45:47;3.05;;;0.60;;
69310;SDS011;56430;48.154;16.458;2022-07-18T06:48:15;5.25;;;0.80;;
69310;SDS011;56430;48.154;16.458;2022-07-18T06:50:42;4.63;;;1.13;;
69310;SDS011;56430;48.154;16.458;2022-07-18T06:53:09;7.82;;;0.70;;
69310;SDS011;56430;48.154;16.458;2022-07-18T06:55:36;3.28;;;0.60;;
69310;SDS011;56430;48.154;16.458;2022-07-18T06:58:03;5.80;;;0.52;;
69310;SDS011;56430;48.154;16.458;2022-07-18T07:00:30;4.32;;;0.80;;
69310;SDS011;56430;48.154;16.458;2022-07-18T07:02:56;6.47;;;0.85;;
69310;SDS011;56430;48.154;16.458;2022-07-18T07:05:25;8.20;;;0.87;;
69310;SDS011;56430;48.154;16.458;2022-07-18T07:07:51;8.23;;;0.73;;
69310;SDS011;56430;48.154;16.458;2022-07-18T07:10:18;3.17;;;0.57;;
69310;SDS011;56430;48.154;16.458;2022-07-18T07:12:46;4.53;;;0.90;;
69310;SDS011;56430;48.154;16.458;2022-07-18T07:15:14;4.38;;;0.77;;
69310;SDS011;56430;48.154;16.458;2022-07-18T07:17:41;4.70;;;0.90;;
69310;SDS011;56430;48.154;16.458;2022-07-18T07:20:08;6.20;;;0.80;;
69310;SDS011;56430;48.154;16.458;2022-07-18T07:22:41;3.38;;;0.93;;
69310;SDS011;56430;48.154;16.458;2022-07-18T07:25:09;4.22;;;1.10;;
69310;SDS011;56430;48.154;16.458;2022-07-18T07:27:35;3.63;;;0.90;;
69310;SDS011;56430;48.154;16.458;2022-07-18T07:30:03;5.73;;;1.07;;
69310;SDS011;56430;48.154;16.458;2022-07-18T07:32:33;4.83;;;0.90;;
69310;SDS011;56430;48.154;16.458;2022-07-18T07:34:59;4.85;;;0.90;;
69310;SDS011;56430;48.154;16.458;2022-07-18T07:37:26;6.00;;;1.20;;
69310;SDS011;56430;48.154;16.458;2022-07-18T07:39:54;6.50;;;0.95;;
69310;SDS011;56430;48.154;16.458;2022-07-18T07:42:21;7.10;;;1.20;;
69310;SDS011;56430;48.154;16.458;2022-07-18T07:44:48;4.32;;;0.95;;
69310;SDS011;56430;48.154;16.458;2022-07-18T07:47:15;5.38;;;1.10;;
69310;SDS011;56430;48.154;16.458;2022-07-18T07:49:42;5.55;;;1.08;;
69310;SDS011;56430;48.154;16.458;2022-07-18T07:52:08;3.75;;;1.08;;
69310;SDS011;56430;48.154;16.458;2022-07-18T07:54:37;7.17;;;1.27;;
69310;SDS011;56430;48.154;16.458;2022-07-18T07:57:05;5.63;;;1.07;;
69310;SDS011;56430;48.154;16.458;2022-07-18T07:59:32;11.15;;;1.20;;
69310;SDS011;56430;48.154;16.458;2022-07-18T08:01:59;5.40;;;1.17;;
69310;SDS011;56430;48.154;16.458;2022-07-18T08:04:25;4.65;;;1.25;;
69310;SDS011;56430;48.154;16.458;2022-07-18T08:06:52;7.10;;;1.40;;
69310;SDS011;56430;48.154;16.458;2022-07-18T08:09:19;10.57;;;1.70;;
69310;SDS011;56430;48.154;16.458;2022-07-18T08:11:46;5.03;;;1.40;;
69310;SDS011;56430;48.154;16.458;2022-07-18T08:14:14;5.18;;;1.50;;
69310;SDS011;56430;48.154;16.458;2022-07-18T08:16:41;5.78;;;1.70;;
69310;SDS011;56430;48.154;16.458;2022-07-18T08:19:08;6.27;;;1.63;;
69310;SDS011;56430;48.154;16.458;2022-07-18T08:21:35;4.00;;;1.30;;
69310;SDS011;56430;48.154;16.458;2022-07-18T08:24:02;3.25;;;1.23;;
69310;SDS011;56430;48.154;16.458;2022-07-18T08:26:29;14.15;;;2.00;;
69310;SDS011;56430;48.154;16.458;2022-07-18T08:28:55;65.22;;;5.15;;
69310;SDS011;56430;48.154;16.458;2022-07-18T08:31:24;29.05;;;3.00;;
69310;SDS011;56430;48.154;16.458;2022-07-18T08:33:50;8.35;;;1.60;;
69310;SDS011;56430;48.154;16.458;2022-07-18T08:36:17;5.65;;;1.95;;
69310;SDS011;56430;48.154;16.458;2022-07-18T08:38:45;6.70;;;1.90;;
69310;SDS011;56430;48.154;16.458;2022-07-18T08:41:12;3.63;;;1.90;;
69310;SDS011;56430;48.154;16.458;2022-07-18T08:43:42;6.67;;;2.10;;
69310;SDS011;56430;48.154;16.458;2022-07-18T08:46:09;7.80;;;1.90;;
69310;SDS011;56430;48.154;16.458;2022-07-18T08:48:38;19.30;;;2.47;;
69310;SDS011;56430;48.154;16.458;2022-07-18T08:51:05;12.32;;;2.40;;
69310;SDS011;56430;48.154;16.458;2022-07-18T08:53:33;10.38;;;2.30;;
69310;SDS011;56430;48.154;16.458;2022-07-18T08:56:03;6.43;;;1.92;;
69310;SDS011;56430;48.154;16.458;2022-07-18T08:58:30;4.13;;;2.45;;
69310;SDS011;56430;48.154;16.458;2022-07-18T09:00:56;5.32;;;2.20;;
69310;SDS011;56430;48.154;16.458;2022-07-18T09:03:24;14.63;;;2.75;;
69310;SDS011;56430;48.154;16.458;2022-07-18T09:06:03;30.25;;;3.70;;
69310;SDS011;56430;48.154;16.458;2022-07-18T09:08:30;16.73;;;2.87;;
69310;SDS011;56430;48.154;16.458;2022-07-18T09:10:58;13.20;;;2.97;;
69310;SDS011;56430;48.154;16.458;2022-07-18T09:13:29;5.93;;;2.35;;
69310;SDS011;56430;48.154;16.458;2022-07-18T09:16:02;7.63;;;2.80;;
69310;SDS011;56430;48.154;16.458;2022-07-18T09:18:29;7.43;;;2.95;;
69310;SDS011;56430;48.154;16.458;2022-07-18T09:20:57;22.90;;;3.83;;
69310;SDS011;56430;48.154;16.458;2022-07-18T09:23:27;45.70;;;4.88;;
69310;SDS011;56430;48.154;16.458;2022-07-18T09:25:54;15.60;;;2.80;;
69310;SDS011;56430;48.154;16.458;2022-07-18T09:28:21;8.60;;;2.70;;
69310;SDS011;56430;48.154;16.458;2022-07-18T09:30:48;7.78;;;3.10;;
69310;SDS011;56430;48.154;16.458;2022-07-18T09:33:15;12.13;;;2.90;;
69310;SDS011;56430;48.154;16.458;2022-07-18T09:35:43;17.27;;;2.67;;
69310;SDS011;56430;48.154;16.458;2022-07-18T09:38:10;14.98;;;3.05;;
69310;SDS011;56430;48.154;16.458;2022-07-18T09:40:40;8.10;;;2.70;;
69310;SDS011;56430;48.154;16.458;2022-07-18T09:43:07;7.22;;;2.60;;
69310;SDS011;56430;48.154;16.458;2022-07-18T09:45:35;7.63;;;2.85;;
69310;SDS011;56430;48.154;16.458;2022-07-18T09:48:03;9.65;;;3.20;;
69310;SDS011;56430;48.154;16.458;2022-07-18T09:50:32;10.15;;;3.20;;
69310;SDS011;56430;48.154;16.458;2022-07-18T09:53:00;4.68;;;2.70;;
69310;SDS011;56430;48.154;16.458;2022-07-18T09:55:27;12.93;;;3.40;;
69310;SDS011;56430;48.154;16.458;2022-07-18T09:58:03;4.57;;;2.70;;
69310;SDS011;56430;48.154;16.458;2022-07-18T10:00:31;9.40;;;3.57;;
69310;SDS011;56430;48.154;16.458;2022-07-18T10:02:59;6.55;;;2.95;;
69310;SDS011;56430;48.154;16.458;2022-07-18T10:05:27;8.65;;;3.30;;
69310;SDS011;56430;48.154;16.458;2022-07-18T10:07:54;7.18;;;3.53;;
69310;SDS011;56430;48.154;16.458;2022-07-18T10:10:21;7.13;;;4.30;;
69310;SDS011;56430;48.154;16.458;2022-07-18T10:12:50;5.60;;;3.63;;
69310;SDS011;56430;48.154;16.458;2022-07-18T10:15:20;5.93;;;3.55;;
69310;SDS011;56430;48.154;16.458;2022-07-18T10:17:48;7.75;;;3.50;;
69310;SDS011;56430;48.154;16.458;2022-07-18T10:20:14;7.50;;;3.47;;
69310;SDS011;56430;48.154;16.458;2022-07-18T10:22:42;5.70;;;3.20;;
69310;SDS011;56430;48.154;16.458;2022-07-18T10:25:09;3.90;;;3.10;;
69310;SDS011;56430;48.154;16.458;2022-07-18T10:27:48;7.70;;;3.08;;
69310;SDS011;56430;48.154;16.458;2022-07-18T10:30:16;7.05;;;3.20;;
69310;SDS011;56430;48.154;16.458;2022-07-18T10:32:46;5.32;;;3.83;;
69310;SDS011;56430;48.154;16.458;2022-07-18T10:35:14;6.20;;;3.42;;
69310;SDS011;56430;48.154;16.458;2022-07-18T10:37:41;4.57;;;3.05;;
69310;SDS011;56430;48.154;16.458;2022-07-18T10:40:20;8.52;;;3.05;;
69310;SDS011;56430;48.154;16.458;2022-07-18T10:42:52;6.60;;;2.83;;
69310;SDS011;56430;48.154;16.458;2022-07-18T10:45:44;5.00;;;2.70;;
69310;SDS011;56430;48.154;16.458;2022-07-18T10:51:01;4.43;;;3.10;;
69310;SDS011;56430;48.154;16.458;2022-07-18T10:56:09;4.35;;;3.20;;
69310;SDS011;56430;48.154;16.458;2022-07-18T10:58:38;10.02;;;3.38;;
69310;SDS011;56430;48.154;16.458;2022-07-18T11:01:05;6.57;;;2.70;;
69310;SDS011;56430;48.154;16.458;2022-07-18T11:03:35;9.38;;;3.00;;
69310;SDS011;56430;48.154;16.458;2022-07-18T11:06:03;7.60;;;2.70;;
69310;SDS011;56430;48.154;16.458;2022-07-18T11:08:30;4.38;;;2.92;;
69310;SDS011;56430;48.154;16.458;2022-07-18T11:11:11;4.15;;;2.65;;
69310;SDS011;56430;48.154;16.458;2022-07-18T11:13:41;6.17;;;3.10;;
69310;SDS011;56430;48.154;16.458;2022-07-18T11:16:09;5.90;;;3.10;;
69310;SDS011;56430;48.154;16.458;2022-07-18T11:21:23;5.97;;;3.15;;
69310;SDS011;56430;48.154;16.458;2022-07-18T11:23:51;7.82;;;2.90;;
69310;SDS011;56430;48.154;16.458;2022-07-18T11:26:19;5.80;;;2.90;;
69310;SDS011;56430;48.154;16.458;2022-07-18T11:28:46;5.43;;;2.47;;
69310;SDS011;56430;48.154;16.458;2022-07-18T11:31:14;5.20;;;2.30;;
69310;SDS011;56430;48.154;16.458;2022-07-18T11:33:43;4.03;;;2.00;;
69310;SDS011;56430;48.154;16.458;2022-07-18T11:36:11;5.10;;;2.30;;
69310;SDS011;56430;48.154;16.458;2022-07-18T11:38:46;3.87;;;2.30;;
69310;SDS011;56430;48.154;16.458;2022-07-18T11:41:13;6.30;;;2.27;;
69310;SDS011;56430;48.154;16.458;2022-07-18T11:43:40;4.03;;;1.95;;
69310;SDS011;56430;48.154;16.458;2022-07-18T11:46:08;4.10;;;1.90;;
69310;SDS011;56430;48.154;16.458;2022-07-18T11:48:35;5.55;;;1.75;;
69310;SDS011;56430;48.154;16.458;2022-07-18T11:51:02;5.35;;;1.95;;
69310;SDS011;56430;48.154;16.458;2022-07-18T11:53:34;25.65;;;2.95;;
69310;SDS011;56430;48.154;16.458;2022-07-18T11:56:04;13.15;;;2.00;;
69310;SDS011;56430;48.154;16.458;2022-07-18T11:58:34;11.48;;;1.85;;
69310;SDS011;56430;48.154;16.458;2022-07-18T12:01:02;9.73;;;1.90;;
69310;SDS011;56430;48.154;16.458;2022-07-18T12:03:28;21.30;;;2.17;;
69310;SDS011;56430;48.154;16.458;2022-07-18T12:05:56;5.07;;;1.50;;
69310;SDS011;56430;48.154;16.458;2022-07-18T12:08:26;6.07;;;1.50;;
69310;SDS011;56430;48.154;16.458;2022-07-18T12:11:07;4.68;;;1.50;;
69310;SDS011;56430;48.154;16.458;2022-07-18T12:13:50;22.25;;;2.60;;
69310;SDS011;56430;48.154;16.458;2022-07-18T12:16:22;15.85;;;2.25;;
69310;SDS011;56430;48.154;16.458;2022-07-18T12:18:49;5.80;;;1.52;;
69310;SDS011;56430;48.154;16.458;2022-07-18T12:21:16;7.85;;;1.80;;
69310;SDS011;56430;48.154;16.458;2022-07-18T12:23:43;4.07;;;1.38;;
69310;SDS011;56430;48.154;16.458;2022-07-18T12:29:07;7.20;;;1.60;;
69310;SDS011;56430;48.154;16.458;2022-07-18T12:31:38;69.53;;;4.65;;
69310;SDS011;56430;48.154;16.458;2022-07-18T12:34:09;29.58;;;2.35;;
69310;SDS011;56430;48.154;16.458;2022-07-18T12:36:49;6.28;;;1.58;;
69310;SDS011;56430;48.154;16.458;2022-07-18T12:39:24;3.58;;;1.70;;
69310;SDS011;56430;48.154;16.458;2022-07-18T12:41:51;8.38;;;1.50;;
69310;SDS011;56430;48.154;16.458;2022-07-18T12:44:19;3.28;;;1.20;;
69310;SDS011;56430;48.154;16.458;2022-07-18T12:46:46;4.75;;;1.20;;
69310;SDS011;56430;48.154;16.458;2022-07-18T12:49:13;3.10;;;1.50;;
69310;SDS011;56430;48.154;16.458;2022-07-18T12:51:40;2.97;;;1.30;;
69310;SDS011;56430;48.154;16.458;2022-07-18T12:54:07;5.33;;;1.47;;
69310;SDS011;56430;48.154;16.458;2022-07-18T12:56:34;5.75;;;1.50;;
69310;SDS011;56430;48.154;16.458;2022-07-18T12:59:01;6.22;;;1.23;;
69310;SDS011;56430;48.154;16.458;2022-07-18T13:01:29;3.78;;;1.55;;
69310;SDS011;56430;48.154;16.458;2022-07-18T13:03:57;13.80;;;2.20;;
69310;SDS011;56430;48.154;16.458;2022-07-18T13:06:24;9.70;;;1.30;;
69310;SDS011;56430;48.154;16.458;2022-07-18T13:08:51;25.48;;;2.10;;
69310;SDS011;56430;48.154;16.458;2022-07-18T13:11:17;13.07;;;1.63;;
69310;SDS011;56430;48.154;16.458;2022-07-18T13:13:44;4.03;;;1.15;;
69310;SDS011;56430;48.154;16.458;2022-07-18T13:16:11;45.50;;;3.27;;
69310;SDS011;56430;48.154;16.458;2022-07-18T13:18:39;19.17;;;2.40;;
69310;SDS011;56430;48.154;16.458;2022-07-18T13:21:06;9.02;;;1.40;;
69310;SDS011;56430;48.154;16.458;2022-07-18T13:23:33;5.38;;;1.17;;
69310;SDS011;56430;48.154;16.458;2022-07-18T13:26:00;5.15;;;1.33;;
69310;SDS011;56430;48.154;16.458;2022-07-18T13:28:27;9.57;;;1.30;;
69310;SDS011;56430;48.154;16.458;2022-07-18T13:30:53;12.65;;;1.50;;
69310;SDS011;56430;48.154;16.458;2022-07-18T13:33:21;6.10;;;1.30;;
69310;SDS011;56430;48.154;16.458;2022-07-18T13:35:49;3.72;;;1.27;;
69310;SDS011;56430;48.154;16.458;2022-07-18T13:38:16;3.75;;;1.40;;
69310;SDS011;56430;48.154;16.458;2022-07-18T13:40:43;4.10;;;1.10;;
69310;SDS011;56430;48.154;16.458;2022-07-18T13:43:10;5.70;;;1.33;;
69310;SDS011;56430;48.154;16.458;2022-07-18T13:45:37;2.60;;;1.23;;
69310;SDS011;56430;48.154;16.458;2022-07-18T13:48:05;4.50;;;1.30;;
69310;SDS011;56430;48.154;16.458;2022-07-18T13:50:32;3.83;;;1.25;;
69310;SDS011;56430;48.154;16.458;2022-07-18T13:53:00;4.82;;;1.33;;
69310;SDS011;56430;48.154;16.458;2022-07-18T13:55:27;6.63;;;1.50;;
69310;SDS011;56430;48.154;16.458;2022-07-18T13:57:53;9.00;;;1.90;;
69310;SDS011;56430;48.154;16.458;2022-07-18T14:00:20;6.00;;;1.27;;
69310;SDS011;56430;48.154;16.458;2022-07-18T14:02:47;5.50;;;1.20;;
69310;SDS011;56430;48.154;16.458;2022-07-18T14:05:14;6.67;;;1.67;;
69310;SDS011;56430;48.154;16.458;2022-07-18T14:07:41;3.00;;;1.10;;
69310;SDS011;56430;48.154;16.458;2022-07-18T14:10:10;5.45;;;1.48;;
69310;SDS011;56430;48.154;16.458;2022-07-18T14:12:37;3.75;;;1.10;;
69310;SDS011;56430;48.154;16.458;2022-07-18T14:15:04;2.65;;;1.30;;
69310;SDS011;56430;48.154;16.458;2022-07-18T14:17:31;5.72;;;1.17;;
69310;SDS011;56430;48.154;16.458;2022-07-18T14:19:58;16.52;;;2.60;;
69310;SDS011;56430;48.154;16.458;2022-07-18T14:22:25;2.67;;;1.10;;
69310;SDS011;56430;48.154;16.458;2022-07-18T14:24:52;4.60;;;1.50;;
69310;SDS011;56430;48.154;16.458;2022-07-18T14:27:20;2.85;;;0.95;;
69310;SDS011;56430;48.154;16.458;2022-07-18T14:29:47;3.83;;;1.10;;
69310;SDS011;56430;48.154;16.458;2022-07-18T14:32:14;3.87;;;1.00;;
69310;SDS011;56430;48.154;16.458;2022-07-18T14:34:41;4.30;;;1.05;;
69310;SDS011;56430;48.154;16.458;2022-07-18T14:37:07;2.47;;;0.93;;
69310;SDS011;56430;48.154;16.458;2022-07-18T14:39:34;4.38;;;1.33;;
69310;SDS011;56430;48.154;16.458;2022-07-18T14:42:01;3.13;;;1.15;;
69310;SDS011;56430;48.154;16.458;2022-07-18T14:44:29;2.90;;;1.00;;
69310;SDS011;56430;48.154;16.458;2022-07-18T14:46:56;4.57;;;1.10;;